Huvudsida
METAR-TAF:

METAR-TAF

Flygplatser :

Norman Manley International Airport

Kingston, Jamaica

latitud: 17-56N, longitud: 076-47W, höjd: 3 m

Aktuellt väderrapport

Denna rapport gjordes för 59 minuter sedan, klockan 08:00 UTC
Vind 13 kt från ost
Temperatur 27°C
Fuktighet 58%
Tryck 1016 hPa
Sikt 10 km eller mer
Få moln på en höjd av 2400 ft

METAR: MKJP 160800Z 10013KT 9999 FEW024 27/18 Q1016

Tid: 03:59 (08:59 UTC)

Väderprognos

Denna rapport gjordes för 3 timmar och 44 minuter sedan, klockan 05:15 UTC
Prognos gäller från 16 kl. 06 UTC till 17 kl. 06 UTC
Vind 15 kt från sydost
Sikt 10 km eller mer
Få moln på en höjd av 2200 ft
Spridda moln på en höjd av 3400 ft
Blir
från 16 kl. 09 UTC till 16 kl. 11 UTC
Vind 5 kt från nord
Blir
från 16 kl. 14 UTC till 16 kl. 16 UTC
Vind 20 kt från sydost

TAF: MKJP 160515Z 1606/1706 13015KT 9999 FEW022 SCT034 BECMG 1609/1611 35005KT BECMG 1614/1616 13020KT

Aktuella väderrapporter och prognoser från 4000 flygplatser (METAR- och TAF-rapporter).

De tillgängliga stationerna syns som gula och röda prickar på kartan.

För musen över prickarna för att se namnen på stationerna.

Klicka sedan för att få väderrapporter och prognoser.

För att ändra kartan: Klicka på de gröna knapparna med ett svart kors på för att zooma in; den gröna knappen med ett streck på för att zooma ut; eller på de gröna pilarna för angränsande kartor.


METAR-TAF: